Time;durP1;ratioP1;P1;durP2;ratioP2;P2;SDS_P1;SDS_P2;PMS_P1;PMS_P2;Temp;Humidity;BMP_temperature;BMP_pressure;BME280_temperature;BME280_humidity;BME280_pressure;Samples;Min_cycle;Max_cycle;Signal;HPM_P1;HPM_P2
2022/10/10 00:01:13;;;;;;;0.80;0.80;;;;;;;17.96;49.54;95817.81;5112429;28;20528;-70
2022/10/10 00:03:40;;;;;;;1.23;1.20;;;;;;;17.88;49.71;95815.78;5110620;28;20463;-73
2022/10/10 00:06:08;;;;;;;1.03;1.03;;;;;;;17.97;49.22;95816.75;5104205;28;20484;-67
2022/10/10 00:08:35;;;;;;;1.00;1.00;;;;;;;17.83;49.89;95818.44;5091474;28;20965;-66
2022/10/10 00:11:03;;;;;;;0.10;0.10;;;;;;;17.85;49.87;95821.63;5111598;28;20429;-69
2022/10/10 00:13:30;;;;;;;2.23;1.63;;;;;;;17.75;49.86;95817.22;5100284;28;20468;-68
2022/10/10 00:15:57;;;;;;;1.00;1.00;;;;;;;17.83;49.56;95829.06;5091042;28;20683;-68
2022/10/10 00:18:24;;;;;;;1.07;0.73;;;;;;;17.93;49.68;95831.63;5102283;28;20444;-69
2022/10/10 00:20:52;;;;;;;1.53;1.43;;;;;;;17.96;49.78;95828.41;5108868;28;21223;-70
2022/10/10 00:23:19;;;;;;;2.03;1.53;;;;;;;17.87;49.95;95830.09;5100438;28;20440;-65
2022/10/10 00:25:46;;;;;;;1.03;1.03;;;;;;;17.93;49.79;95818.38;5097011;28;20460;-67
2022/10/10 00:28:14;;;;;;;1.53;1.20;;;;;;;17.79;50.22;95823.53;5109735;28;20519;-68
2022/10/10 00:30:41;;;;;;;0.30;0.30;;;;;;;17.80;49.71;95817.16;5110289;28;20436;-69
2022/10/10 00:33:07;;;;;;;2.77;2.23;;;;;;;17.78;49.94;95815.84;5096525;28;20527;-69
2022/10/10 00:35:35;;;;;;;0.80;0.53;;;;;;;17.62;50.08;95817.84;5111493;28;20444;-70
2022/10/10 00:38:03;;;;;;;3.00;1.07;;;;;;;17.64;49.75;95817.56;5097303;28;20494;-66
2022/10/10 00:40:30;;;;;;;0.43;0.43;;;;;;;17.38;50.47;95826.72;5100632;28;20441;-69
2022/10/10 00:42:57;;;;;;;1.33;1.23;;;;;;;17.41;50.03;95826.19;5098974;28;20436;-67
2022/10/10 00:45:27;;;;;;;1.10;1.10;;;;;;;17.48;49.70;95816.09;5110962;28;20444;-71
2022/10/10 00:48:06;;;;;;;4.43;2.30;;;;;;;17.53;50.16;95821.34;5103474;28;21016;-70
2022/10/10 00:50:39;;;;;;;0.87;0.83;;;;;;;17.72;49.81;95824.91;5099758;28;20437;-67
2022/10/10 00:53:08;;;;;;;1.30;1.07;;;;;;;17.57;49.80;95825.03;5103281;28;20452;-68
2022/10/10 00:55:36;;;;;;;0.73;0.70;;;;;;;17.54;49.83;95830.88;5092131;28;20883;-68
2022/10/10 00:58:05;;;;;;;2.40;2.20;;;;;;;17.37;50.54;95830.44;5097106;28;20477;-65
2022/10/10 01:00:33;;;;;;;2.30;1.67;;;;;;;17.26;50.90;95824.41;5106786;28;20443;-69
2022/10/10 01:03:00;;;;;;;1.30;1.20;;;;;;;17.05;50.79;95813.13;5100337;28;20436;-67
2022/10/10 01:05:27;;;;;;;0.73;0.73;;;;;;;17.22;50.43;95829.44;5094431;28;20532;-67
2022/10/10 01:08:13;;;;;;;0.50;0.50;;;;;;;17.21;50.25;95829.72;5098264;28;20818;-69
2022/10/10 01:10:58;;;;;;;0.53;0.47;;;;;;;17.21;50.58;95833.16;5108114;28;20444;-68
2022/10/10 01:13:59;;;;;;;1.03;1.03;;;;;;;17.29;49.83;95833.66;5102236;28;20966;-70
2022/10/10 01:16:53;;;;;;;0.60;0.60;;;;;;;17.22;49.69;95839.28;5110672;28;20436;-70
2022/10/10 01:19:35;;;;;;;0.37;0.37;;;;;;;17.21;49.66;95833.16;5090381;28;20449;-66
2022/10/10 01:22:24;;;;;;;0.60;0.33;;;;;;;17.13;49.92;95841.69;5098419;28;20536;-66
2022/10/10 01:25:05;;;;;;;6.03;1.67;;;;;;;16.98;50.43;95843.63;5097871;28;20441;-69
2022/10/10 01:27:42;;;;;;;0.50;0.50;;;;;;;17.11;50.10;95843.03;5095535;28;20598;-69
2022/10/10 01:30:13;;;;;;;4.60;1.43;;;;;;;16.92;50.76;95837.56;5101141;28;20490;-67
2022/10/10 01:32:48;;;;;;;0.90;0.90;;;;;;;16.87;50.50;95813.75;5105436;28;20476;-72
2022/10/10 01:35:47;;;;;;;0.83;0.83;;;;;;;16.92;50.43;95845.50;5101424;28;20439;-68
2022/10/10 01:38:23;;;;;;;2.13;2.03;;;;;;;17.09;49.93;95845.97;5104209;28;20445;-70
2022/10/10 01:40:57;;;;;;;4.60;0.83;;;;;;;16.95;50.39;95844.94;5097718;28;20449;-70
2022/10/10 01:43:25;;;;;;;0.40;0.40;;;;;;;16.81;50.56;95841.31;5101751;28;20566;-68
2022/10/10 01:45:53;;;;;;;0.63;0.63;;;;;;;16.54;51.55;95837.44;5105296;28;20480;-68
2022/10/10 01:48:28;;;;;;;1.57;1.20;;;;;;;16.65;51.43;95839.00;5099841;28;20580;-71
2022/10/10 01:51:14;;;;;;;0.30;0.30;;;;;;;16.48;52.18;95834.00;5091010;28;20817;-69
2022/10/10 01:54:04;;;;;;;1.40;1.00;;;;;;;16.66;51.44;95830.00;5103152;28;20441;-65
2022/10/10 01:57:08;;;;;;;0.50;0.50;;;;;;;16.66;51.43;95830.78;5089419;28;20436;-71
2022/10/10 02:00:09;;;;;;;1.33;1.07;;;;;;;16.56;51.78;95832.66;5090298;28;20444;-69
2022/10/10 02:03:07;;;;;;;1.93;1.17;;;;;;;16.72;51.22;95840.28;5095765;28;21026;-65
2022/10/10 02:05:45;;;;;;;0.60;0.60;;;;;;;16.75;51.05;95845.03;5095478;28;20831;-70
2022/10/10 02:08:26;;;;;;;1.20;1.10;;;;;;;16.71;50.98;95841.38;5109324;28;20447;-70
2022/10/10 02:10:57;;;;;;;0.87;0.87;;;;;;;16.62;50.84;95843.00;5096204;28;20942;-69
2022/10/10 02:13:32;;;;;;;2.33;1.23;;;;;;;16.55;51.14;95837.16;5112240;28;20444;-72
2022/10/10 02:16:01;;;;;;;1.00;1.00;;;;;;;16.78;50.81;95838.41;5111373;28;21008;-71
2022/10/10 02:18:34;;;;;;;0.50;0.50;;;;;;;16.72;50.74;95844.78;5098925;28;20469;-69
2022/10/10 02:21:03;;;;;;;5.50;1.97;;;;;;;16.63;51.14;95847.19;5103326;28;20471;-69
2022/10/10 02:23:30;;;;;;;0.93;0.93;;;;;;;16.65;51.10;95850.38;5100100;28;20473;-67
2022/10/10 02:25:58;;;;;;;1.57;1.47;;;;;;;16.77;50.67;95848.19;5094918;28;20441;-70
2022/10/10 02:28:38;;;;;;;1.60;0.97;;;;;;;16.81;50.08;95853.75;5100560;28;20429;-69
2022/10/10 02:31:15;;;;;;;0.67;0.67;;;;;;;16.80;50.50;95847.69;5105494;28;20436;-66
2022/10/10 02:33:55;;;;;;;2.33;2.13;;;;;;;16.68;50.69;95846.38;5109567;28;20470;-71
2022/10/10 02:36:24;;;;;;;0.53;0.53;;;;;;;16.65;51.03;95834.50;5109120;28;21031;-67
2022/10/10 02:38:52;;;;;;;4.03;2.50;;;;;;;16.83;50.31;95852.44;5109883;28;20497;-67
2022/10/10 02:41:21;;;;;;;1.73;1.63;;;;;;;16.78;50.35;95844.50;5092043;28;20571;-68
2022/10/10 02:43:49;;;;;;;1.63;1.20;;;;;;;16.63;50.89;95851.69;5103921;28;20578;-70
2022/10/10 02:46:18;;;;;;;2.97;2.70;;;;;;;16.73;50.91;95855.09;5109237;28;20540;-70
2022/10/10 02:48:45;;;;;;;1.73;1.63;;;;;;;16.38;51.94;95849.91;5109971;28;20954;-71
2022/10/10 02:51:14;;;;;;;4.33;0.83;;;;;;;16.24;52.26;95854.13;5088970;28;20449;-68
2022/10/10 02:53:41;;;;;;;1.30;1.20;;;;;;;16.25;51.76;95855.72;5106250;28;21015;-70
2022/10/10 02:56:09;;;;;;;3.40;2.73;;;;;;;16.39;52.09;95848.81;5109322;28;20444;-69
2022/10/10 02:58:36;;;;;;;1.43;1.27;;;;;;;16.27;52.15;95831.66;5094954;28;20959;-69
2022/10/10 03:01:06;;;;;;;0.73;0.73;;;;;;;16.28;52.45;95847.25;5108297;28;20468;-69
2022/10/10 03:03:32;;;;;;;1.70;1.60;;;;;;;16.41;52.31;95854.63;5095304;28;20433;-72
2022/10/10 03:06:01;;;;;;;1.77;1.40;;;;;;;16.44;51.98;95854.09;5089261;28;20433;-69
2022/10/10 03:08:27;;;;;;;0.63;0.63;;;;;;;16.54;51.23;95848.81;5101987;28;20539;-66
2022/10/10 03:11:01;;;;;;;1.00;1.00;;;;;;;16.54;51.24;95854.13;5109667;28;21012;-64
2022/10/10 03:13:28;;;;;;;1.27;1.17;;;;;;;16.41;51.46;95849.34;5089906;28;20433;-70
2022/10/10 03:15:54;;;;;;;1.57;1.40;;;;;;;16.35;51.35;95863.63;5106875;28;20894;-69
2022/10/10 03:18:22;;;;;;;0.87;0.87;;;;;;;16.33;51.51;95863.09;5099401;28;20449;-69
2022/10/10 03:20:51;;;;;;;0.40;0.40;;;;;;;16.38;51.36;95844.59;5102937;28;20884;-69
2022/10/10 03:23:18;;;;;;;4.77;1.23;;;;;;;16.28;51.60;95843.84;5088696;28;20495;-67
2022/10/10 03:25:45;;;;;;;1.20;1.07;;;;;;;16.41;51.58;95865.22;5089552;28;20438;-70
2022/10/10 03:28:13;;;;;;;2.17;2.00;;;;;;;16.49;50.54;95864.72;5101624;28;20482;-70
2022/10/10 03:30:40;;;;;;;1.10;1.10;;;;;;;16.54;50.87;95870.00;5088779;28;20914;-71
2022/10/10 03:33:08;;;;;;;1.80;1.60;;;;;;;16.32;51.26;95879.25;5093671;28;20897;-70
2022/10/10 03:35:35;;;;;;;0.97;0.97;;;;;;;16.27;51.35;95858.91;5096753;28;20468;-66
2022/10/10 03:38:03;;;;;;;1.63;1.53;;;;;;;16.23;51.41;95869.22;5102959;28;20842;-68
2022/10/10 03:40:30;;;;;;;1.70;1.57;;;;;;;16.08;51.25;95866.59;5097154;28;20480;-69
2022/10/10 03:42:57;;;;;;;2.27;1.70;;;;;;;16.27;50.97;95853.63;5088465;28;20883;-67
2022/10/10 03:45:24;;;;;;;2.10;1.87;;;;;;;16.31;51.27;95865.25;5088488;28;20830;-70
2022/10/10 03:47:50;;;;;;;4.83;2.03;;;;;;;16.24;51.48;95872.66;5102479;28;20461;-70
2022/10/10 03:50:17;;;;;;;1.10;0.90;;;;;;;16.02;51.66;95877.44;5093894;28;20453;-72
2022/10/10 03:52:44;;;;;;;0.50;0.50;;;;;;;16.15;50.92;95850.44;5098680;28;20480;-66
2022/10/10 03:55:11;;;;;;;1.07;1.07;;;;;;;16.32;50.87;95866.81;5107353;28;20436;-70
2022/10/10 03:57:38;;;;;;;1.03;1.03;;;;;;;16.37;50.30;95872.09;5105198;28;20614;-70
2022/10/10 04:00:05;;;;;;;1.30;1.20;;;;;;;16.47;49.94;95869.47;5103928;28;20844;-69
2022/10/10 04:02:32;;;;;;;0.73;0.73;;;;;;;16.17;50.79;95870.28;5103319;28;20970;-74
2022/10/10 04:04:59;;;;;;;1.40;1.30;;;;;;;16.31;50.59;95877.69;5106296;28;20462;-72
2022/10/10 04:07:27;;;;;;;1.37;1.30;;;;;;;16.22;50.45;95877.44;5092111;28;20487;-68
2022/10/10 04:09:54;;;;;;;0.60;0.60;;;;;;;16.32;50.35;95876.59;5106542;28;20452;-72
2022/10/10 04:12:21;;;;;;;1.60;1.13;;;;;;;16.04;50.76;95870.03;5098261;28;20506;-68
2022/10/10 04:14:48;;;;;;;0.20;0.20;;;;;;;16.16;50.75;95878.50;5112463;28;20443;-73
2022/10/10 04:17:15;;;;;;;0.53;0.43;;;;;;;15.88;51.12;95884.31;5092586;28;20443;-67
2022/10/10 04:19:41;;;;;;;2.27;1.10;;;;;;;16.11;50.19;95876.63;5091785;28;21054;-69
2022/10/10 04:22:08;;;;;;;1.33;1.00;;;;;;;16.13;50.18;95876.34;5091583;28;20468;-71
2022/10/10 04:24:37;;;;;;;14.43;2.23;;;;;;;16.20;49.91;95879.56;5091633;28;20441;-67
2022/10/10 04:27:04;;;;;;;1.20;1.07;;;;;;;16.12;50.26;95880.06;5105182;28;20463;-74
2022/10/10 04:29:31;;;;;;;0.67;0.67;;;;;;;15.94;51.56;95875.31;5094235;28;20485;-72
2022/10/10 04:31:57;;;;;;;2.43;1.70;;;;;;;15.82;53.07;95872.16;5106693;28;20432;-69
2022/10/10 04:34:24;;;;;;;0.37;0.37;;;;;;;15.66;53.44;95875.81;5111526;28;20440;-70
2022/10/10 04:36:51;;;;;;;0.77;0.77;;;;;;;15.99;51.94;95873.47;5111786;28;20536;-75
2022/10/10 04:39:19;;;;;;;0.53;0.53;;;;;;;15.40;53.00;95884.75;5099259;28;20464;-71
2022/10/10 04:41:49;;;;;;;1.47;1.37;;;;;;;15.30;54.26;95877.59;5097702;28;20546;-69
2022/10/10 04:44:17;;;;;;;0.83;0.77;;;;;;;15.34;54.50;95881.31;5098018;28;20539;-68
2022/10/10 04:46:45;;;;;;;0.30;0.30;;;;;;;15.47;53.74;95882.69;5096226;28;20453;-72
2022/10/10 04:49:11;;;;;;;0.73;0.73;;;;;;;15.64;53.79;95885.88;5102385;28;20809;-67
2022/10/10 04:51:38;;;;;;;4.80;2.83;;;;;;;15.37;54.47;95890.53;5089485;28;20527;-69
2022/10/10 04:54:05;;;;;;;3.97;3.57;;;;;;;16.06;52.46;95894.34;5097362;28;20444;-65
2022/10/10 04:56:32;;;;;;;1.87;1.77;;;;;;;16.04;52.11;95885.88;5097649;28;20510;-66
2022/10/10 04:58:59;;;;;;;5.43;3.03;;;;;;;15.74;53.05;95893.81;5090755;28;20453;-66
2022/10/10 05:01:25;;;;;;;0.90;0.90;;;;;;;16.02;53.57;95898.59;5090347;28;20502;-71
2022/10/10 05:03:53;;;;;;;4.23;1.80;;;;;;;16.17;52.19;95885.34;5091429;28;20536;-72
2022/10/10 05:06:19;;;;;;;18.70;8.77;;;;;;;16.40;51.97;95892.75;5090827;28;20472;-66
2022/10/10 05:08:52;;;;;;;4.50;3.27;;;;;;;16.43;51.12;95892.19;5105442;28;20492;-66
2022/10/10 05:11:19;;;;;;;0.70;0.70;;;;;;;16.30;51.42;95895.41;5099387;28;20497;-72
2022/10/10 05:13:48;;;;;;;2.17;1.87;;;;;;;16.35;51.57;95898.03;5112061;28;20497;-74
2022/10/10 05:16:16;;;;;;;3.80;2.73;;;;;;;16.48;50.92;95902.81;5105470;28;20426;-75
2022/10/10 05:18:43;;;;;;;1.40;1.17;;;;;;;16.43;51.39;95904.63;5094660;28;20441;-67
2022/10/10 05:21:10;;;;;;;3.37;2.60;;;;;;;16.35;51.64;95900.66;5092000;28;20535;-66
2022/10/10 05:23:40;;;;;;;1.43;1.37;;;;;;;16.41;51.24;95909.38;5099550;28;20474;-65
2022/10/10 05:26:08;;;;;;;1.23;1.13;;;;;;;15.94;53.75;95896.47;5117121;28;20433;-67
2022/10/10 05:28:35;;;;;;;2.60;2.40;;;;;;;16.23;52.50;95913.38;5104495;28;20985;-76
2022/10/10 05:31:03;;;;;;;1.70;1.60;;;;;;;15.98;53.23;95923.97;5108491;28;20437;-68
2022/10/10 05:33:31;;;;;;;5.77;2.80;;;;;;;15.93;53.59;95918.69;5090239;28;20520;-69
2022/10/10 05:36:06;;;;;;;1.93;1.63;;;;;;;16.31;53.05;95918.16;5090745;28;20450;-68
2022/10/10 05:38:34;;;;;;;1.00;1.00;;;;;;;16.06;53.29;95910.22;5094667;28;20454;-75
2022/10/10 05:41:01;;;;;;;1.40;1.30;;;;;;;16.60;51.81;95927.13;5100742;28;20437;-71
2022/10/10 05:43:28;;;;;;;2.43;2.20;;;;;;;16.57;52.47;95917.06;5090231;28;20507;-75
2022/10/10 05:45:56;;;;;;;3.60;3.30;;;;;;;16.66;51.91;95918.09;5109262;28;20450;-72
2022/10/10 05:48:23;;;;;;;4.47;2.47;;;;;;;16.75;51.43;95919.16;5110490;28;20474;-73
2022/10/10 05:50:53;;;;;;;1.67;1.57;;;;;;;16.57;52.05;95921.59;5093508;28;20449;-73
2022/10/10 05:53:24;;;;;;;4.97;2.30;;;;;;;16.59;52.19;95925.53;5104691;28;20483;-72
2022/10/10 05:55:51;;;;;;;2.00;1.90;;;;;;;16.82;51.56;95926.81;5103863;28;20437;-74
2022/10/10 05:58:18;;;;;;;2.33;2.13;;;;;;;16.84;51.58;95941.34;5102939;28;20444;-75
2022/10/10 06:00:47;;;;;;;3.90;2.90;;;;;;;16.80;52.28;95932.38;5104959;28;20476;-72
2022/10/10 06:03:15;;;;;;;1.63;1.53;;;;;;;16.91;51.94;95931.31;5090232;28;20498;-77
2022/10/10 06:05:44;;;;;;;1.30;1.20;;;;;;;16.99;51.56;95930.72;5104666;28;20510;-72
2022/10/10 06:08:11;;;;;;;1.80;1.70;;;;;;;16.68;53.07;95937.16;5100478;28;20507;-75
2022/10/10 06:10:41;;;;;;;3.87;3.57;;;;;;;16.90;52.49;95952.72;5110893;28;20440;-73
2022/10/10 06:13:10;;;;;;;6.20;3.40;;;;;;;16.58;53.69;95941.69;5110180;28;21026;-72
2022/10/10 06:15:37;;;;;;;0.67;0.67;;;;;;;16.56;53.70;95952.53;5110204;28;20973;-72
2022/10/10 06:18:05;;;;;;;1.50;1.40;;;;;;;16.29;53.80;95944.06;5102515;28;20877;-71
2022/10/10 06:20:39;;;;;;;1.97;1.83;;;;;;;16.98;52.77;95939.75;5104617;28;20463;-75
2022/10/10 06:23:07;;;;;;;0.67;0.67;;;;;;;17.04;52.07;95945.81;5102824;28;20502;-72
2022/10/10 06:25:35;;;;;;;2.43;2.23;;;;;;;17.10;52.40;95953.47;5103556;28;20482;-71
2022/10/10 06:28:08;;;;;;;1.50;1.50;;;;;;;17.74;50.74;95947.38;5103261;28;20501;-75
2022/10/10 06:30:42;;;;;;;0.97;0.97;;;;;;;17.12;52.72;95956.63;5090163;28;20437;-72
2022/10/10 06:33:10;;;;;;;2.10;1.97;;;;;;;17.35;51.96;95957.09;5109307;28;20500;-73
2022/10/10 06:35:41;;;;;;;1.47;1.30;;;;;;;17.77;50.80;95947.59;5098428;28;20525;-72
2022/10/10 06:38:09;;;;;;;2.20;2.07;;;;;;;17.54;51.17;95955.44;5103493;28;20998;-74
2022/10/10 06:40:36;;;;;;;0.50;0.50;;;;;;;17.39;51.11;95958.91;5098309;28;20467;-73
2022/10/10 06:43:03;;;;;;;2.13;1.90;;;;;;;17.43;51.55;95956.50;5098159;28;20448;-75
2022/10/10 06:45:35;;;;;;;1.27;1.17;;;;;;;17.03;52.33;95963.56;5109639;28;20523;-72
2022/10/10 06:48:02;;;;;;;3.90;2.00;;;;;;;17.67;50.56;95957.47;5105802;28;20476;-73
2022/10/10 06:50:29;;;;;;;2.03;1.93;;;;;;;17.61;50.10;95967.31;5089334;28;20835;-74
2022/10/10 06:52:55;;;;;;;1.30;1.30;;;;;;;17.37;51.13;95954.97;5089416;28;20919;-74
2022/10/10 06:55:22;;;;;;;6.83;1.47;;;;;;;17.27;52.03;95957.63;5089498;28;20536;-76
2022/10/10 06:57:50;;;;;;;0.67;0.67;;;;;;;17.39;51.80;95960.78;5089571;28;20536;-76
2022/10/10 07:00:17;;;;;;;2.30;2.10;;;;;;;18.27;49.98;95951.78;5090873;28;20437;-76
2022/10/10 07:02:44;;;;;;;1.20;1.00;;;;;;;18.49;49.52;95954.81;5102583;28;21047;-75
2022/10/10 07:05:12;;;;;;;2.13;1.73;;;;;;;18.34;49.92;95952.25;5103101;28;20436;-75
2022/10/10 07:07:39;;;;;;;1.43;1.40;;;;;;;18.40;50.02;95961.75;5109768;28;20476;-73
2022/10/10 07:10:08;;;;;;;1.93;1.73;;;;;;;18.62;49.64;95956.00;5097472;28;20512;-76
2022/10/10 07:12:37;;;;;;;0.97;0.77;;;;;;;18.01;50.33;95963.66;5093973;28;20524;-75
2022/10/10 07:15:11;;;;;;;2.00;1.70;;;;;;;18.45;49.83;95953.78;5109621;28;20436;-72
2022/10/10 07:17:38;;;;;;;0.80;0.77;;;;;;;18.07;51.20;95965.19;5109662;28;20470;-76
2022/10/10 07:20:05;;;;;;;16.87;1.67;;;;;;;18.81;49.38;95956.91;5099653;28;20823;-75
2022/10/10 07:22:33;;;;;;;0.47;0.47;;;;;;;18.86;48.61;95952.34;5103291;28;20436;-73
2022/10/10 07:25:00;;;;;;;1.23;1.17;;;;;;;19.00;48.31;95942.63;5098298;28;20443;-73
2022/10/10 07:27:27;;;;;;;2.23;2.13;;;;;;;18.84;49.08;95943.84;5112301;28;20536;-76
2022/10/10 07:29:54;;;;;;;0.83;0.80;;;;;;;18.65;49.25;95947.50;5107146;27;20527;-76
2022/10/10 07:32:21;;;;;;;1.30;1.20;;;;;;;18.91;49.03;95946.97;5107242;28;20455;-76
2022/10/10 07:34:57;;;;;;;0.77;0.77;;;;;;;19.13;48.61;95949.91;5121209;28;20453;-77
2022/10/10 07:37:26;;;;;;;0.43;0.43;;;;;;;18.95;48.90;95937.38;5107290;28;20511;-77
2022/10/10 07:39:53;;;;;;;5.50;1.77;;;;;;;19.59;47.69;95946.72;5098860;28;20436;-75
2022/10/10 07:42:20;;;;;;;2.10;1.10;;;;;;;19.47;47.66;95943.69;5098573;28;20444;-74
2022/10/10 07:44:47;;;;;;;0.60;0.53;;;;;;;19.50;47.88;95937.81;5113271;28;20547;-75
2022/10/10 07:47:14;;;;;;;0.83;0.83;;;;;;;19.81;47.18;95938.97;5113120;28;20436;-77
2022/10/10 07:49:41;;;;;;;0.80;0.80;;;;;;;19.64;47.63;95930.69;5113189;28;20528;-75
2022/10/10 07:52:08;;;;;;;1.73;1.63;;;;;;;19.58;48.16;95932.63;5093450;28;21183;-73
2022/10/10 07:54:34;;;;;;;1.80;1.70;;;;;;;19.53;48.67;95937.22;5092723;28;20432;-75
2022/10/10 07:57:01;;;;;;;0.47;0.47;;;;;;;20.04;47.38;95925.59;5093139;28;20441;-78
2022/10/10 07:59:28;;;;;;;0.80;0.80;;;;;;;19.58;47.99;95934.50;5101491;28;20472;-76
2022/10/10 08:01:55;;;;;;;0.70;0.70;;;;;;;19.99;47.55;95927.53;5113201;28;20433;-77
2022/10/10 08:04:22;;;;;;;1.77;1.00;;;;;;;20.29;46.62;95923.66;5113316;28;20527;-74
2022/10/10 08:06:49;;;;;;;1.13;1.10;;;;;;;19.91;47.47;95928.16;5099881;28;20472;-73
2022/10/10 08:09:16;;;;;;;0.70;0.70;;;;;;;19.88;47.38;95926.91;5092535;28;20476;-76
2022/10/10 08:11:43;;;;;;;0.30;0.30;;;;;;;20.27;47.03;95921.28;5104243;28;20441;-74
2022/10/10 08:14:10;;;;;;;3.20;2.10;;;;;;;20.22;47.28;95894.72;5113936;28;20519;-75
2022/10/10 08:16:37;;;;;;;3.87;3.47;;;;;;;20.61;46.44;95923.63;5113777;28;20436;-74
2022/10/10 08:19:04;;;;;;;1.90;1.80;;;;;;;20.68;46.20;95922.16;5099905;28;20825;-74
2022/10/10 08:21:31;;;;;;;2.43;2.23;;;;;;;21.04;46.11;95925.78;5114215;28;20951;-77
2022/10/10 08:24:01;;;;;;;2.20;2.00;;;;;;;20.80;46.07;95919.78;5115019;28;20428;-73
2022/10/10 08:26:28;;;;;;;1.03;0.90;;;;;;;21.11;45.69;95925.38;5125599;28;20440;-73
2022/10/10 08:28:55;;;;;;;0.43;0.43;;;;;;;20.67;46.39;95931.25;5120352;28;20487;-76
2022/10/10 08:31:22;;;;;;;1.07;0.97;;;;;;;21.02;44.51;95930.59;5098339;28;20535;-76
2022/10/10 08:33:50;;;;;;;0.30;0.30;;;;;;;21.17;45.06;95924.97;5112567;28;20523;-75
2022/10/10 08:36:20;;;;;;;1.60;1.50;;;;;;;21.68;44.90;95918.59;5097923;28;20444;-77
2022/10/10 08:38:47;;;;;;;0.97;0.67;;;;;;;21.43;44.11;95922.59;5101586;28;20444;-76
2022/10/10 08:41:35;;;;;;;0.90;0.90;;;;;;;21.93;43.71;95920.75;5100849;28;20880;-74
2022/10/10 08:44:26;;;;;;;0.63;0.63;;;;;;;21.58;42.96;95910.81;5105256;28;20465;-77
2022/10/10 08:47:01;;;;;;;0.67;0.67;;;;;;;21.69;43.05;95920.19;5091791;28;20445;-75
2022/10/10 08:49:37;;;;;;;2.10;0.70;;;;;;;21.62;42.82;95920.56;5091604;28;20889;-76
2022/10/10 08:52:22;;;;;;;0.67;0.67;;;;;;;21.60;42.20;95921.97;5091569;28;20440;-71
2022/10/10 08:54:52;;;;;;;1.77;1.13;;;;;;;22.02;42.03;95921.59;5092041;28;20468;-72
2022/10/10 08:57:47;;;;;;;1.57;1.27;;;;;;;21.62;42.29;95925.13;5097803;28;20463;-75
2022/10/10 09:00:20;;;;;;;0.80;0.80;;;;;;;22.32;41.41;95918.19;5111463;28;20767;-77
2022/10/10 09:02:57;;;;;;;0.50;0.50;;;;;;;22.10;41.87;95923.53;5092191;28;20199;-76
2022/10/10 09:05:47;;;;;;;0.90;0.90;;;;;;;22.64;42.09;95917.97;5107640;28;20443;-79
2022/10/10 09:08:26;;;;;;;0.67;0.67;;;;;;;22.68;41.15;95923.47;5111616;28;20502;-75
2022/10/10 09:11:23;;;;;;;1.07;0.97;;;;;;;22.61;39.95;95915.88;5096229;28;20183;-73
2022/10/10 09:14:08;;;;;;;0.80;0.80;;;;;;;23.04;39.48;95922.25;5074113;28;20284;-79
2022/10/10 09:16:46;;;;;;;1.20;1.10;;;;;;;22.93;39.56;95933.50;5111828;28;20258;-76
2022/10/10 09:19:23;;;;;;;0.40;0.40;;;;;;;23.19;38.74;95925.59;5111627;28;20553;-76
2022/10/10 09:21:56;;;;;;;0.77;0.77;;;;;;;22.89;38.58;95917.28;5102390;28;20251;-75
2022/10/10 09:24:33;;;;;;;0.83;0.83;;;;;;;22.83;38.96;95923.84;5097062;28;20314;-78
2022/10/10 09:27:03;;;;;;;0.53;0.53;;;;;;;23.04;38.91;95924.13;5101323;28;21339;-77
2022/10/10 09:30:16;;;;;;;0.63;0.63;;;;;;;23.03;38.99;95923.31;5105509;28;20561;-80
2022/10/10 09:32:53;;;;;;;2.83;1.90;;;;;;;22.52;38.73;95927.56;5062622;28;20196;-75
2022/10/10 09:35:28;;;;;;;1.10;0.83;;;;;;;22.39;37.94;95934.56;5085627;28;20213;-74
2022/10/10 09:38:19;;;;;;;0.43;0.43;;;;;;;22.73;38.58;95926.03;5108714;28;20436;-75
2022/10/10 09:41:10;;;;;;;0.30;0.30;;;;;;;23.30;38.20;95929.59;5107696;28;20495;-75
2022/10/10 09:43:38;;;;;;;0.60;0.60;;;;;;;23.36;37.51;95920.31;5107699;28;20464;-71
2022/10/10 09:46:06;;;;;;;0.30;0.30;;;;;;;23.01;38.58;95928.19;5116619;28;20784;-75
2022/10/10 09:48:39;;;;;;;0.40;0.40;;;;;;;23.06;38.25;95932.63;5107116;28;20229;-80
2022/10/10 09:51:13;;;;;;;1.17;1.07;;;;;;;23.40;38.24;95927.41;5093008;28;20203;-73
2022/10/10 09:53:41;;;;;;;0.20;0.20;;;;;;;23.34;38.65;95928.63;5090192;28;20895;-73
2022/10/10 09:56:33;;;;;;;1.20;1.13;;;;;;;23.32;37.04;95922.03;5095132;28;20669;-75
2022/10/10 09:59:01;;;;;;;1.20;1.10;;;;;;;23.62;37.63;95919.28;5095292;28;20195;-84
2022/10/10 10:01:33;;;;;;;0.23;0.23;;;;;;;23.43;37.59;95921.44;5101349;28;20892;-74
2022/10/10 10:04:12;;;;;;;0.50;0.50;;;;;;;23.54;37.83;95924.63;5107379;28;20211;-76
2022/10/10 10:07:24;;;;;;;0.87;0.87;;;;;;;23.21;37.16;95913.47;5105678;28;20440;-78
2022/10/10 10:09:55;;;;;;;0.23;0.23;;;;;;;23.41;37.41;95914.81;5112076;28;20304;-74
2022/10/10 10:12:26;;;;;;;7.53;1.10;;;;;;;23.45;37.49;95910.44;5110295;28;20206;-73
2022/10/10 10:15:02;;;;;;;0.57;0.57;;;;;;;23.66;36.83;95908.72;5111491;28;20935;-76
2022/10/10 10:17:30;;;;;;;6.23;1.30;;;;;;;23.75;37.15;95910.31;5095767;28;20205;-74
2022/10/10 10:19:57;;;;;;;0.60;0.60;;;;;;;23.20;37.57;95905.75;5112224;28;20207;-76
2022/10/10 10:22:34;;;;;;;0.33;0.33;;;;;;;23.55;37.23;95904.78;5110239;28;20195;-78
2022/10/10 10:25:30;;;;;;;0.30;0.30;;;;;;;23.68;36.67;95898.50;5111573;28;20198;-77
2022/10/10 10:28:09;;;;;;;0.70;0.70;;;;;;;23.87;37.16;95898.97;5105231;28;20202;-80
2022/10/10 10:30:41;;;;;;;1.03;0.93;;;;;;;23.83;37.17;95890.78;5103327;28;20194;-72
2022/10/10 10:33:36;;;;;;;0.40;0.40;;;;;;;23.64;36.04;95905.56;5111545;28;20218;-78
2022/10/10 10:36:33;;;;;;;0.23;0.23;;;;;;;23.58;35.87;95901.47;5108870;28;20190;-75
2022/10/10 10:39:12;;;;;;;0.87;0.87;;;;;;;24.12;35.91;95894.75;5105938;28;20203;-76
2022/10/10 10:42:17;;;;;;;1.13;0.70;;;;;;;24.14;36.14;95893.34;5099628;28;20222;-74
2022/10/10 10:44:56;;;;;;;0.60;0.60;;;;;;;23.85;35.38;95879.75;5097923;28;20585;-74
2022/10/10 10:47:41;;;;;;;0.70;0.70;;;;;;;24.35;35.65;95888.91;5092918;28;20194;-75
2022/10/10 10:50:42;;;;;;;0.40;0.40;;;;;;;23.96;35.23;95881.03;5089892;28;20219;-72
2022/10/10 10:53:15;;;;;;;0.37;0.37;;;;;;;24.10;35.62;95887.81;5103471;28;20273;-76
2022/10/10 10:56:11;;;;;;;1.17;1.03;;;;;;;24.21;36.16;95877.59;5097343;28;20665;-70
2022/10/10 10:59:09;;;;;;;0.57;0.57;;;;;;;23.90;35.84;95876.94;5083400;28;20258;-75
2022/10/10 11:02:12;;;;;;;0.33;0.33;;;;;;;23.95;36.13;95884.81;5107973;28;20179;-76
2022/10/10 11:05:22;;;;;;;0.40;0.40;;;;;;;23.64;36.42;95884.97;5104886;28;20212;-73
2022/10/10 11:08:34;;;;;;;0.57;0.57;;;;;;;23.89;35.97;95875.34;5103479;28;20197;-74
2022/10/10 11:11:20;;;;;;;3.83;1.07;;;;;;;23.75;35.84;95864.03;5113644;28;20225;-76
2022/10/10 11:14:01;;;;;;;0.53;0.40;;;;;;;23.38;35.76;95853.91;5112719;28;20194;-74
2022/10/10 11:16:38;;;;;;;0.30;0.30;;;;;;;23.89;35.75;95854.72;5113004;28;20621;-72
2022/10/10 11:19:44;;;;;;;1.40;1.17;;;;;;;23.93;35.55;95849.53;5096146;28;20202;-72
2022/10/10 11:22:18;;;;;;;0.60;0.60;;;;;;;23.80;35.39;95850.47;5107631;28;20210;-75
2022/10/10 11:25:00;;;;;;;0.70;0.60;;;;;;;23.43;35.39;95864.47;5114725;28;20201;-75
2022/10/10 11:27:51;;;;;;;1.37;0.93;;;;;;;23.67;35.61;95846.84;5109708;28;20219;-74
2022/10/10 11:30:25;;;;;;;0.67;0.67;;;;;;;23.86;35.37;95846.56;5123928;28;20743;-76
2022/10/10 11:33:13;;;;;;;1.00;0.93;;;;;;;23.75;35.23;95843.41;5116722;28;20230;-78
2022/10/10 11:35:53;;;;;;;0.27;0.27;;;;;;;23.74;36.14;95857.88;5115087;27;20255;-75
2022/10/10 11:38:44;;;;;;;0.60;0.40;;;;;;;23.85;35.59;95847.63;5094598;28;20610;-77
2022/10/10 11:41:14;;;;;;;0.30;0.30;;;;;;;23.54;35.73;95825.63;5095413;28;20199;-76
2022/10/10 11:43:50;;;;;;;0.40;0.40;;;;;;;23.41;36.36;95842.59;5110272;28;20264;-76
2022/10/10 11:46:55;;;;;;;0.93;0.77;;;;;;;23.40;35.57;95835.66;5103401;28;20306;-75
2022/10/10 11:49:51;;;;;;;1.97;0.83;;;;;;;23.90;35.65;95834.88;5110434;28;20234;-75
2022/10/10 11:52:23;;;;;;;0.30;0.30;;;;;;;23.55;35.98;95821.84;5106687;28;20715;-74
2022/10/10 11:55:25;;;;;;;0.40;0.40;;;;;;;23.42;37.12;95828.13;5117588;28;20213;-75
2022/10/10 11:58:16;;;;;;;4.63;3.73;;;;;;;23.68;36.43;95815.53;5121978;28;20195;-74
2022/10/10 12:00:49;;;;;;;0.97;0.97;;;;;;;23.93;36.13;95812.06;5115191;28;20205;-72
2022/10/10 12:03:15;;;;;;;2.63;1.60;;;;;;;23.79;36.35;95796.19;5108598;28;20719;-75